Time;durP1;ratioP1;P1;durP2;ratioP2;P2;SDS_P1;SDS_P2;PMS_P1;PMS_P2;Temp;Humidity;BMP_temperature;BMP_pressure;BME280_temperature;BME280_humidity;BME280_pressure;Samples;Min_cycle;Max_cycle;Signal;HPM_P1;HPM_P2
2023/07/03 00:01:11;;;;;;;;;;;;;;;27.95;34.74;100087.34;5060248;28;1051;-40
2023/07/03 00:03:38;;;;;;;;;;;;;;;27.71;34.59;100081.47;5059895;28;1909;-37
2023/07/03 00:06:03;;;;;;;;;;;;;;;27.86;34.45;100075.06;5060027;28;1134;-40
2023/07/03 00:08:29;;;;;;;;;;;;;;;27.83;34.51;100078.16;5059092;28;1227;-38
2023/07/03 00:10:58;;;;;;;;;;;;;;;27.82;34.57;100079.22;5060434;28;1230;-38
2023/07/03 00:13:23;;;;;;;;;;;;;;;27.87;34.56;100082.13;5060097;28;1050;-38
2023/07/03 00:15:49;;;;;;;;;;;;;;;27.89;34.79;100077.38;5060160;28;1171;-38
2023/07/03 00:18:14;;;;;;;;;;;;;;;27.73;35.41;100074.00;5059946;28;1167;-38
2023/07/03 00:20:40;;;;;;;;;;;;;;;27.75;34.93;100079.19;5059783;28;1042;-35
2023/07/03 00:23:05;;;;;;;;;;;;;;;27.85;34.57;100076.94;5059492;28;1910;-38
2023/07/03 00:25:31;;;;;;;;;;;;;;;27.69;34.93;100078.16;5059968;28;1019;-39
2023/07/03 00:27:56;;;;;;;;;;;;;;;27.75;34.93;100082.75;5074862;28;1078;-38
2023/07/03 00:30:22;;;;;;;;;;;;;;;27.78;34.72;100084.19;5059323;28;1133;-38
2023/07/03 00:32:48;;;;;;;;;;;;;;;27.81;34.46;100093.78;5091511;28;1453;-38
2023/07/03 00:35:14;;;;;;;;;;;;;;;27.90;34.63;100089.84;5058753;28;1148;-39
2023/07/03 00:37:40;;;;;;;;;;;;;;;27.74;35.02;100091.88;5058417;28;1247;-39
2023/07/03 00:40:06;;;;;;;;;;;;;;;27.71;34.83;100099.56;5059715;28;1112;-38
2023/07/03 00:42:32;;;;;;;;;;;;;;;27.72;34.71;100095.81;5058910;28;1906;-38
2023/07/03 00:44:58;;;;;;;;;;;;;;;27.70;34.86;100093.31;5058161;28;1091;-38
2023/07/03 00:47:24;;;;;;;;;;;;;;;27.82;34.33;100092.72;5059532;28;1059;-39
2023/07/03 00:49:49;;;;;;;;;;;;;;;27.70;34.54;100090.63;5058387;28;1516;-38
2023/07/03 00:52:16;;;;;;;;;;;;;;;27.85;34.31;100085.03;5059119;28;1154;-36
2023/07/03 00:54:42;;;;;;;;;;;;;;;27.72;34.47;100079.59;5074723;28;1265;-37
2023/07/03 00:57:10;;;;;;;;;;;;;;;27.73;34.50;100079.41;5059197;28;1011;-37
2023/07/03 00:59:35;;;;;;;;;;;;;;;27.74;34.35;100080.25;5059475;28;1111;-40
2023/07/03 01:02:15;;;;;;;;;;;;;;;27.81;34.69;100081.06;5059202;28;1977;-38
2023/07/03 01:04:43;;;;;;;;;;;;;;;27.67;34.60;100082.88;5074397;28;1111;-39
2023/07/03 01:07:10;;;;;;;;;;;;;;;27.80;34.32;100081.28;5074292;28;900;-39
2023/07/03 01:09:41;;;;;;;;;;;;;;;27.83;33.78;100073.59;5059004;28;1090;-38
2023/07/03 01:12:07;;;;;;;;;;;;;;;27.90;33.81;100070.06;5057896;28;1424;-39
2023/07/03 01:14:32;;;;;;;;;;;;;;;27.73;34.36;100067.75;5074252;28;1055;-39
2023/07/03 01:16:59;;;;;;;;;;;;;;;27.84;34.10;100069.84;5057633;28;1242;-41
2023/07/03 01:19:29;;;;;;;;;;;;;;;27.80;34.08;100075.88;5074218;28;1142;-39
2023/07/03 01:22:03;;;;;;;;;;;;;;;27.79;34.45;100072.34;5057610;28;1902;-38
2023/07/03 01:24:32;;;;;;;;;;;;;;;27.80;33.86;100073.16;5058730;28;1214;-38
2023/07/03 01:26:59;;;;;;;;;;;;;;;27.73;34.56;100073.16;5091229;28;1256;-37
2023/07/03 01:29:25;;;;;;;;;;;;;;;27.90;34.32;100086.28;5057564;28;1314;-39
2023/07/03 01:31:51;;;;;;;;;;;;;;;27.89;34.55;100081.94;5056982;28;826;-38
2023/07/03 01:34:16;;;;;;;;;;;;;;;27.84;34.38;100087.97;5058170;28;992;-40
2023/07/03 01:36:42;;;;;;;;;;;;;;;27.81;34.33;100089.19;5058320;28;1115;-37
2023/07/03 01:39:07;;;;;;;;;;;;;;;27.86;34.50;100083.19;5074078;28;1067;-38
2023/07/03 01:41:33;;;;;;;;;;;;;;;27.72;34.68;100085.84;5058575;28;1102;-39
2023/07/03 01:43:58;;;;;;;;;;;;;;;27.96;34.58;100083.59;5056287;28;2247;-38
2023/07/03 01:46:24;;;;;;;;;;;;;;;27.89;34.28;100090.88;5057224;28;1303;-38
2023/07/03 01:48:49;;;;;;;;;;;;;;;27.88;34.02;100091.91;5058681;28;1107;-39
2023/07/03 01:51:17;;;;;;;;;;;;;;;27.92;34.21;100095.03;5073697;28;1134;-38
2023/07/03 01:53:48;;;;;;;;;;;;;;;27.76;33.69;100099.75;5073462;28;1126;-38
2023/07/03 01:56:34;;;;;;;;;;;;;;;27.87;33.85;100096.50;5056565;28;878;-38
2023/07/03 01:59:11;;;;;;;;;;;;;;;27.88;34.13;100105.41;5043749;28;1424;-39
2023/07/03 02:01:41;;;;;;;;;;;;;;;27.78;34.11;100105.00;5073559;28;1959;-38
2023/07/03 02:04:08;;;;;;;;;;;;;;;27.80;34.10;100113.72;5073233;28;1334;-37
2023/07/03 02:06:38;;;;;;;;;;;;;;;27.81;33.90;100116.19;5056406;28;1228;-38
2023/07/03 02:09:05;;;;;;;;;;;;;;;27.72;34.05;100110.16;5073467;28;1153;-37
2023/07/03 02:11:33;;;;;;;;;;;;;;;27.80;34.32;100109.16;5073253;28;1188;-36
2023/07/03 02:13:59;;;;;;;;;;;;;;;27.73;34.37;100103.72;5056864;28;1398;-38
2023/07/03 02:16:30;;;;;;;;;;;;;;;27.74;34.30;100108.06;5056241;28;1277;-39
2023/07/03 02:18:56;;;;;;;;;;;;;;;27.79;33.98;100114.75;5055878;28;1170;-37
2023/07/03 02:21:22;;;;;;;;;;;;;;;27.92;34.11;100113.97;5056056;28;1595;-38
2023/07/03 02:23:47;;;;;;;;;;;;;;;27.75;34.19;100117.03;5056451;28;1915;-38
2023/07/03 02:26:14;;;;;;;;;;;;;;;27.78;34.27;100122.03;5055632;28;1144;-38
2023/07/03 02:28:39;;;;;;;;;;;;;;;27.78;34.35;100121.22;5057463;28;1075;-36
2023/07/03 02:31:05;;;;;;;;;;;;;;;27.68;34.43;100121.53;5072234;28;1141;-36
2023/07/03 02:33:31;;;;;;;;;;;;;;;27.77;34.55;100130.34;5056423;28;1175;-38
2023/07/03 02:35:56;;;;;;;;;;;;;;;27.80;33.92;100128.06;5057032;28;1039;-39
2023/07/03 02:38:22;;;;;;;;;;;;;;;27.90;34.12;100134.94;5072600;28;1051;-39
2023/07/03 02:40:47;;;;;;;;;;;;;;;27.92;33.99;100140.97;5055967;28;1107;-39
2023/07/03 02:43:13;;;;;;;;;;;;;;;27.94;33.45;100130.81;5056839;28;1913;-36
2023/07/03 02:45:41;;;;;;;;;;;;;;;27.75;34.50;100138.66;5089323;28;1255;-39
2023/07/03 02:48:08;;;;;;;;;;;;;;;27.92;33.82;100138.28;5072802;28;1142;-37
2023/07/03 02:50:36;;;;;;;;;;;;;;;27.83;33.61;100138.47;5056020;28;1186;-39
2023/07/03 02:53:02;;;;;;;;;;;;;;;27.84;34.27;100137.41;5056108;28;1102;-37
2023/07/03 02:55:28;;;;;;;;;;;;;;;27.90;33.70;100135.78;5055300;28;1218;-38
2023/07/03 02:57:54;;;;;;;;;;;;;;;27.87;33.67;100133.50;5055490;28;1366;-35
2023/07/03 03:00:20;;;;;;;;;;;;;;;27.87;33.53;100137.03;5055771;28;1131;-38
2023/07/03 03:02:47;;;;;;;;;;;;;;;27.90;34.00;100138.50;5057023;28;2047;-38
2023/07/03 03:05:13;;;;;;;;;;;;;;;27.98;33.57;100140.16;5072460;28;1109;-38
2023/07/03 03:07:41;;;;;;;;;;;;;;;27.73;34.23;100138.84;5055511;28;1476;-39
2023/07/03 03:10:07;;;;;;;;;;;;;;;27.70;33.89;100139.25;5057161;28;1027;-38
2023/07/03 03:12:32;;;;;;;;;;;;;;;27.85;33.94;100146.38;5055603;28;1290;-39
2023/07/03 03:14:58;;;;;;;;;;;;;;;27.62;38.46;100140.25;5055459;28;1122;-43
2023/07/03 03:17:23;;;;;;;;;;;;;;;27.44;40.49;100148.88;5056140;28;1150;-43
2023/07/03 03:19:49;;;;;;;;;;;;;;;27.13;41.42;100145.59;5056361;28;1202;-42
2023/07/03 03:22:15;;;;;;;;;;;;;;;26.95;43.00;100146.06;5055102;28;1902;-42
2023/07/03 03:24:40;;;;;;;;;;;;;;;26.95;43.87;100142.50;5055034;28;1142;-42
2023/07/03 03:27:06;;;;;;;;;;;;;;;26.86;46.07;100136.44;5056373;28;1159;-42
2023/07/03 03:29:33;;;;;;;;;;;;;;;27.09;40.39;100133.50;5054924;28;1354;-42
2023/07/03 03:31:58;;;;;;;;;;;;;;;27.13;41.07;100148.28;5056108;28;1214;-43
2023/07/03 03:34:24;;;;;;;;;;;;;;;26.85;45.13;100140.16;5072079;28;1145;-43
2023/07/03 03:36:50;;;;;;;;;;;;;;;26.64;47.71;100140.00;5055192;28;1156;-43
2023/07/03 03:39:15;;;;;;;;;;;;;;;26.62;48.06;100150.16;5043048;28;1124;-43
2023/07/03 03:41:41;;;;;;;;;;;;;;;26.39;47.44;100143.09;5056383;28;1902;-42
2023/07/03 03:44:09;;;;;;;;;;;;;;;26.73;45.53;100151.50;5054717;28;1249;-42
2023/07/03 03:46:34;;;;;;;;;;;;;;;27.20;46.59;100150.19;5054764;28;1118;-42
2023/07/03 03:49:00;;;;;;;;;;;;;;;27.20;47.66;100148.31;5054619;28;1071;-42
2023/07/03 03:51:26;;;;;;;;;;;;;;;27.06;44.63;100143.88;5071735;28;1097;-42
2023/07/03 03:53:52;;;;;;;;;;;;;;;26.99;47.12;100147.31;5071534;28;1147;-47
2023/07/03 03:56:19;;;;;;;;;;;;;;;26.68;46.96;100148.53;5055836;28;1082;-37
2023/07/03 03:58:46;;;;;;;;;;;;;;;27.37;46.49;100156.94;5071746;28;1359;-46
2023/07/03 04:01:12;;;;;;;;;;;;;;;27.14;46.59;100152.63;5055987;28;1150;-35
2023/07/03 04:03:37;;;;;;;;;;;;;;;27.29;44.27;100149.00;5056079;28;1987;-36
2023/07/03 04:06:03;;;;;;;;;;;;;;;27.14;45.56;100147.25;5055542;28;1142;-36
2023/07/03 04:08:28;;;;;;;;;;;;;;;27.37;46.31;100146.16;5071222;28;1072;-35
2023/07/03 04:10:54;;;;;;;;;;;;;;;27.89;45.02;100147.66;5056041;28;1075;-37
2023/07/03 04:13:19;;;;;;;;;;;;;;;27.43;46.31;100152.59;5055870;28;1148;-37
2023/07/03 04:16:04;;;;;;;;;;;;;;;27.46;46.24;100146.78;5055938;28;1196;-35
2023/07/03 04:18:29;;;;;;;;;;;;;;;27.09;47.22;100154.28;5055967;28;1145;-36
2023/07/03 04:20:55;;;;;;;;;;;;;;;27.55;45.42;100149.34;5055594;28;886;-36
2023/07/03 04:23:20;;;;;;;;;;;;;;;27.58;45.28;100163.28;5055985;28;1975;-37
2023/07/03 04:25:46;;;;;;;;;;;;;;;27.50;46.04;100163.44;5055745;28;1119;-37
2023/07/03 04:28:12;;;;;;;;;;;;;;;27.24;46.33;100164.97;5056097;28;1166;-38
2023/07/03 04:30:37;;;;;;;;;;;;;;;27.61;44.65;100162.06;5055847;28;1115;-35
2023/07/03 04:33:03;;;;;;;;;;;;;;;27.14;45.76;100160.75;5065922;28;1052;-36
2023/07/03 04:35:28;;;;;;;;;;;;;;;26.97;45.64;100167.44;5045673;28;1294;-36
2023/07/03 04:37:54;;;;;;;;;;;;;;;27.05;46.28;100171.88;5055555;28;1286;-38
2023/07/03 04:40:20;;;;;;;;;;;;;;;26.83;46.24;100180.84;5055693;28;1155;-34
2023/07/03 04:42:45;;;;;;;;;;;;;;;26.03;48.55;100171.75;5056337;28;1985;-35
2023/07/03 04:45:11;;;;;;;;;;;;;;;26.59;46.95;100182.09;5055109;28;1132;-37
2023/07/03 04:47:39;;;;;;;;;;;;;;;27.37;45.34;100180.41;5055905;28;1036;-37
2023/07/03 04:50:05;;;;;;;;;;;;;;;27.66;44.04;100188.47;5059311;28;1071;-37
2023/07/03 04:52:31;;;;;;;;;;;;;;;27.99;43.13;100188.63;5059614;28;1060;-39
2023/07/03 04:54:56;;;;;;;;;;;;;;;27.93;42.36;100194.00;5059114;28;1150;-40
2023/07/03 04:57:21;;;;;;;;;;;;;;;27.93;42.04;100196.69;5058657;28;1111;-39
2023/07/03 04:59:48;;;;;;;;;;;;;;;27.93;41.70;100196.69;5059143;28;1086;-39
2023/07/03 05:02:17;;;;;;;;;;;;;;;27.91;41.65;100193.38;5058459;28;1913;-38
2023/07/03 05:04:43;;;;;;;;;;;;;;;27.93;41.90;100202.09;5059209;28;1185;-39
2023/07/03 05:07:08;;;;;;;;;;;;;;;28.30;40.69;100199.09;5059323;28;1130;-36
2023/07/03 05:09:34;;;;;;;;;;;;;;;28.20;42.06;100208.47;5058999;28;893;-38
2023/07/03 05:11:59;;;;;;;;;;;;;;;28.31;41.35;100215.13;5058749;28;1133;-38
2023/07/03 05:14:25;;;;;;;;;;;;;;;28.23;42.04;100220.72;5059063;28;1174;-38
2023/07/03 05:16:50;;;;;;;;;;;;;;;28.23;41.65;100207.19;5059065;28;1106;-37
2023/07/03 05:19:16;;;;;;;;;;;;;;;27.93;40.11;100212.91;5058374;28;1106;-31
2023/07/03 05:21:41;;;;;;;;;;;;;;;28.08;39.16;100210.91;5058363;28;1234;-38
2023/07/03 05:24:07;;;;;;;;;;;;;;;27.74;38.92;100209.94;5058977;28;1341;-33
2023/07/03 05:26:32;;;;;;;;;;;;;;;28.03;40.66;100213.38;5058357;28;1113;-36
2023/07/03 05:28:58;;;;;;;;;;;;;;;28.19;39.86;100216.78;5058542;28;1169;-36
2023/07/03 05:31:23;;;;;;;;;;;;;;;28.38;39.96;100219.78;5048583;28;1302;-37
2023/07/03 05:33:49;;;;;;;;;;;;;;;28.61;41.03;100211.28;5056755;28;1015;-35
2023/07/03 05:36:15;;;;;;;;;;;;;;;28.20;41.19;100223.84;5057064;28;1255;-34
2023/07/03 05:38:40;;;;;;;;;;;;;;;28.66;40.38;100216.06;5046215;28;1301;-37
2023/07/03 05:41:06;;;;;;;;;;;;;;;28.46;40.75;100217.69;5073886;28;1067;-34
2023/07/03 05:43:31;;;;;;;;;;;;;;;28.38;40.46;100227.88;5073790;28;1910;-37
2023/07/03 05:45:57;;;;;;;;;;;;;;;28.53;40.36;100228.53;5058193;28;870;-38
2023/07/03 05:48:23;;;;;;;;;;;;;;;28.74;40.35;100224.00;5058151;28;1142;-37
2023/07/03 05:50:48;;;;;;;;;;;;;;;28.69;39.25;100230.03;5057680;28;1202;-38
2023/07/03 05:53:14;;;;;;;;;;;;;;;28.82;37.37;100226.50;5050618;28;1353;-37
2023/07/03 05:55:39;;;;;;;;;;;;;;;28.78;39.32;100232.53;5040286;28;1412;-35
2023/07/03 05:58:05;;;;;;;;;;;;;;;28.65;38.50;100231.47;5057567;28;1046;-38
2023/07/03 06:00:31;;;;;;;;;;;;;;;28.87;37.93;100238.56;5057870;28;1071;-37
2023/07/03 06:02:56;;;;;;;;;;;;;;;28.95;37.40;100244.59;5057789;28;1985;-34
2023/07/03 06:05:22;;;;;;;;;;;;;;;28.35;38.29;100248.91;5057439;28;1088;-37
2023/07/03 06:07:47;;;;;;;;;;;;;;;28.83;39.92;100251.66;5057918;28;1095;-38
2023/07/03 06:10:13;;;;;;;;;;;;;;;29.02;39.67;100254.63;5057658;28;858;-37
2023/07/03 06:12:39;;;;;;;;;;;;;;;29.38;38.37;100256.06;5044033;28;1110;-37
2023/07/03 06:15:05;;;;;;;;;;;;;;;29.28;39.11;100251.06;5057909;28;1112;-37
2023/07/03 06:17:31;;;;;;;;;;;;;;;29.26;39.30;100252.34;5058337;28;1062;-37
2023/07/03 06:19:56;;;;;;;;;;;;;;;29.74;38.61;100255.81;5057090;28;1110;-37
2023/07/03 06:22:22;;;;;;;;;;;;;;;29.72;39.72;100253.31;5057027;28;1977;-39
2023/07/03 06:24:48;;;;;;;;;;;;;;;29.09;37.26;100247.34;5055932;28;1140;-39
2023/07/03 06:27:13;;;;;;;;;;;;;;;28.99;36.54;100245.06;5057609;28;1191;-37
2023/07/03 06:29:39;;;;;;;;;;;;;;;28.69;38.34;100246.25;5057458;28;1149;-39
2023/07/03 06:32:05;;;;;;;;;;;;;;;28.82;38.48;100242.72;5057384;28;1198;-38
2023/07/03 06:34:30;;;;;;;;;;;;;;;28.80;38.99;100247.50;5056246;28;936;-37
2023/07/03 06:36:56;;;;;;;;;;;;;;;28.67;39.34;100255.63;5048314;28;1392;-35
2023/07/03 06:39:22;;;;;;;;;;;;;;;28.37;40.50;100240.56;5057351;28;1104;-37
2023/07/03 06:41:47;;;;;;;;;;;;;;;28.59;39.51;100243.94;5072389;28;1975;-35
2023/07/03 06:44:14;;;;;;;;;;;;;;;28.82;38.46;100244.59;5056900;28;1189;-40
2023/07/03 06:46:39;;;;;;;;;;;;;;;28.94;38.62;100250.22;5057069;28;936;-38
2023/07/03 06:49:05;;;;;;;;;;;;;;;28.97;38.52;100252.56;5057265;28;1115;-41
2023/07/03 06:51:31;;;;;;;;;;;;;;;28.91;38.40;100251.47;5056467;28;1483;-40
2023/07/03 06:53:56;;;;;;;;;;;;;;;28.94;37.15;100250.22;5056483;28;1019;-38
2023/07/03 06:56:22;;;;;;;;;;;;;;;28.62;38.29;100258.09;5056178;28;1195;-39
2023/07/03 06:58:48;;;;;;;;;;;;;;;28.54;38.85;100259.13;5055508;28;1311;-38
2023/07/03 07:01:13;;;;;;;;;;;;;;;28.55;39.12;100256.22;5056380;28;1155;-39
2023/07/03 07:03:39;;;;;;;;;;;;;;;28.52;37.94;100264.75;5056809;28;1987;-38
2023/07/03 07:06:24;;;;;;;;;;;;;;;28.75;37.50;100263.53;5066289;28;1397;-39
2023/07/03 07:08:49;;;;;;;;;;;;;;;28.78;36.56;100278.56;5056151;28;1199;-40
2023/07/03 07:11:16;;;;;;;;;;;;;;;28.58;36.32;100274.75;5056956;28;1098;-38
2023/07/03 07:13:42;;;;;;;;;;;;;;;28.57;36.39;100275.78;5057000;28;1031;-39
2023/07/03 07:16:11;;;;;;;;;;;;;;;28.56;35.81;100273.28;5055863;28;1305;-39
2023/07/03 07:18:37;;;;;;;;;;;;;;;28.19;37.39;100270.84;5055826;28;1115;-40
2023/07/03 07:21:02;;;;;;;;;;;;;;;28.58;36.76;100277.44;5055690;28;1031;-38
2023/07/03 07:23:28;;;;;;;;;;;;;;;29.61;36.80;100283.78;5049484;28;1972;-37
2023/07/03 07:25:54;;;;;;;;;;;;;;;29.69;37.34;100281.69;5049954;28;1294;-35
2023/07/03 07:28:19;;;;;;;;;;;;;;;29.53;37.94;100287.53;5056420;28;1262;-37
2023/07/03 07:30:45;;;;;;;;;;;;;;;29.70;37.86;100287.94;5055234;28;1242;-35
2023/07/03 07:33:10;;;;;;;;;;;;;;;29.73;37.39;100278.56;5048975;28;1286;-32
2023/07/03 07:35:36;;;;;;;;;;;;;;;29.54;36.90;100286.47;5039079;28;1081;-37
2023/07/03 07:38:02;;;;;;;;;;;;;;;29.74;36.94;100281.06;5041799;28;1071;-37
2023/07/03 07:40:27;;;;;;;;;;;;;;;29.50;36.55;100287.94;5056282;28;1079;-35
2023/07/03 07:42:53;;;;;;;;;;;;;;;29.67;36.13;100291.06;5055934;28;1980;-34
2023/07/03 07:45:18;;;;;;;;;;;;;;;29.63;37.23;100298.78;5055902;28;1051;-37
2023/07/03 07:47:44;;;;;;;;;;;;;;;29.72;37.13;100291.28;5056212;28;1143;-36
2023/07/03 07:50:09;;;;;;;;;;;;;;;29.85;36.84;100295.81;5056070;28;1074;-36
2023/07/03 07:52:35;;;;;;;;;;;;;;;30.40;37.45;100296.47;5055551;28;1249;-37
2023/07/03 07:55:00;;;;;;;;;;;;;;;30.42;37.55;100307.94;5039965;28;1040;-36
2023/07/03 07:57:28;;;;;;;;;;;;;;;29.84;38.22;100317.72;5044964;28;1132;-37
2023/07/03 07:59:54;;;;;;;;;;;;;;;29.84;38.95;100320.44;5055074;28;1035;-37
2023/07/03 08:02:19;;;;;;;;;;;;;;;29.61;40.12;100322.59;5055962;28;1906;-36
2023/07/03 08:04:45;;;;;;;;;;;;;;;29.25;41.21;100316.50;5055516;28;1167;-38
2023/07/03 08:07:11;;;;;;;;;;;;;;;29.78;39.79;100324.84;5056208;28;1123;-36
2023/07/03 08:09:37;;;;;;;;;;;;;;;29.74;39.40;100327.16;5071128;28;1118;-30
2023/07/03 08:12:02;;;;;;;;;;;;;;;30.00;38.59;100322.69;5056684;28;1146;-37
2023/07/03 08:14:28;;;;;;;;;;;;;;;30.09;38.58;100323.28;5054914;28;1278;-36
2023/07/03 08:16:53;;;;;;;;;;;;;;;30.08;37.97;100335.19;5056322;28;1051;-38
2023/07/03 08:19:19;;;;;;;;;;;;;;;29.75;39.21;100339.63;5059589;28;1066;-38
2023/07/03 08:21:44;;;;;;;;;;;;;;;29.73;39.10;100321.94;5059557;28;1058;-37
2023/07/03 08:24:10;;;;;;;;;;;;;;;29.75;38.74;100327.94;5059619;28;1973;-38
2023/07/03 08:26:36;;;;;;;;;;;;;;;29.55;40.34;100345.88;5060142;28;1126;-30
2023/07/03 08:29:01;;;;;;;;;;;;;;;29.36;40.59;100349.44;5058458;28;1040;-39
2023/07/03 08:31:27;;;;;;;;;;;;;;;29.06;40.68;100354.19;5060364;28;1126;-40
2023/07/03 08:33:53;;;;;;;;;;;;;;;28.80;40.31;100342.25;5059557;28;1131;-40
2023/07/03 08:36:19;;;;;;;;;;;;;;;28.68;40.24;100343.88;5059916;28;1199;-37
2023/07/03 08:38:44;;;;;;;;;;;;;;;28.96;39.16;100343.75;5059811;28;1141;-38
2023/07/03 08:41:12;;;;;;;;;;;;;;;28.49;40.76;100346.34;5059891;28;1120;-40
2023/07/03 08:43:45;;;;;;;;;;;;;;;28.81;40.02;100340.41;5059637;28;1910;-33
2023/07/03 08:46:11;;;;;;;;;;;;;;;28.86;38.89;100340.63;5074779;28;1159;-40
2023/07/03 08:48:37;;;;;;;;;;;;;;;28.78;38.74;100336.22;5058187;28;1192;-40
2023/07/03 08:51:03;;;;;;;;;;;;;;;28.79;38.31;100346.00;5074270;28;1051;-39
2023/07/03 08:53:39;;;;;;;;;;;;;;;28.73;38.27;100342.25;5059291;28;1222;-39
2023/07/03 08:56:07;;;;;;;;;;;;;;;28.78;37.96;100352.44;5058905;28;1179;-38
2023/07/03 08:58:33;;;;;;;;;;;;;;;28.32;39.52;100367.44;5058182;28;1187;-33
2023/07/03 09:00:59;;;;;;;;;;;;;;;28.31;39.10;100365.78;5074859;28;1247;-39
2023/07/03 09:03:30;;;;;;;;;;;;;;;28.67;38.18;100363.88;5057119;28;1976;-38
2023/07/03 09:06:15;;;;;;;;;;;;;;;28.62;38.03;100366.34;5074167;28;1219;-39
2023/07/03 09:08:59;;;;;;;;;;;;;;;28.54;37.61;100362.78;5074342;28;1286;-38
2023/07/03 09:11:25;;;;;;;;;;;;;;;28.65;37.58;100355.94;5058688;28;1159;-39
2023/07/03 09:13:50;;;;;;;;;;;;;;;28.54;37.79;100364.66;5073717;28;1166;-39
2023/07/03 09:16:18;;;;;;;;;;;;;;;28.63;37.78;100371.56;5073533;28;1100;-38
2023/07/03 09:18:59;;;;;;;;;;;;;;;28.26;39.13;100363.66;5073891;28;1225;-39
2023/07/03 09:21:25;;;;;;;;;;;;;;;28.14;39.05;100358.00;5059297;28;1026;-39
2023/07/03 09:23:56;;;;;;;;;;;;;;;28.41;38.10;100357.31;5073036;28;1910;-40
2023/07/03 09:26:43;;;;;;;;;;;;;;;28.31;37.74;100349.56;5058678;28;1007;-36
2023/07/03 09:29:09;;;;;;;;;;;;;;;28.46;36.74;100342.13;5074091;28;1083;-37
2023/07/03 09:31:34;;;;;;;;;;;;;;;28.33;37.04;100329.41;5074471;28;1059;-40
2023/07/03 09:34:00;;;;;;;;;;;;;;;27.99;38.41;100323.78;5058477;28;1063;-38
2023/07/03 09:36:34;;;;;;;;;;;;;;;27.78;38.89;100311.19;5058728;28;1120;-39
2023/07/03 09:39:09;;;;;;;;;;;;;;;27.89;39.19;100306.28;5057964;28;1198;-40
2023/07/03 09:41:35;;;;;;;;;;;;;;;27.81;38.90;100302.69;5058350;28;1218;-40
2023/07/03 09:44:05;;;;;;;;;;;;;;;28.01;37.96;100303.84;5058336;28;1992;-40
2023/07/03 09:46:30;;;;;;;;;;;;;;;28.14;37.73;100306.63;5058172;28;1015;-38
2023/07/03 09:48:56;;;;;;;;;;;;;;;28.39;36.89;100311.53;5058353;28;1162;-40
2023/07/03 09:51:23;;;;;;;;;;;;;;;28.27;37.35;100313.13;5058274;28;1094;-39
2023/07/03 09:53:49;;;;;;;;;;;;;;;27.97;35.47;100315.06;5058500;28;1131;-40
2023/07/03 09:56:16;;;;;;;;;;;;;;;27.84;38.22;100315.00;5074202;28;1257;-39
2023/07/03 09:58:47;;;;;;;;;;;;;;;28.38;38.72;100330.69;5057640;28;874;-39
2023/07/03 10:01:16;;;;;;;;;;;;;;;28.03;39.94;100326.94;5059584;28;1043;-38
2023/07/03 10:03:42;;;;;;;;;;;;;;;28.23;40.03;100334.31;5057650;28;1914;-40
2023/07/03 10:06:11;;;;;;;;;;;;;;;27.95;41.45;100341.47;5058588;28;1114;-41
2023/07/03 10:08:39;;;;;;;;;;;;;;;28.16;40.93;100333.47;5073158;28;1035;-40
2023/07/03 10:11:04;;;;;;;;;;;;;;;28.06;41.68;100342.75;5073128;28;1280;-40
2023/07/03 10:13:30;;;;;;;;;;;;;;;27.82;42.75;100336.81;5056853;28;1095;-39
2023/07/03 10:15:56;;;;;;;;;;;;;;;28.22;41.76;100338.06;5057562;28;1078;-39
2023/07/03 10:18:25;;;;;;;;;;;;;;;28.40;40.61;100340.25;5056375;28;1111;-33
2023/07/03 10:20:51;;;;;;;;;;;;;;;28.30;40.42;100337.88;5056772;28;1131;-38
2023/07/03 10:23:26;;;;;;;;;;;;;;;28.32;40.84;100337.69;5057106;28;1921;-40
2023/07/03 10:25:59;;;;;;;;;;;;;;;28.25;40.81;100334.94;5057768;28;1011;-40
2023/07/03 10:28:31;;;;;;;;;;;;;;;28.43;40.70;100336.28;5073278;28;1118;-35
2023/07/03 10:30:58;;;;;;;;;;;;;;;28.38;40.74;100339.63;5056919;28;1067;-41
2023/07/03 10:33:30;;;;;;;;;;;;;;;27.94;42.52;100352.47;5057362;28;1328;-40
2023/07/03 10:35:57;;;;;;;;;;;;;;;27.92;43.67;100335.59;5073009;28;948;-39
2023/07/03 10:38:31;;;;;;;;;;;;;;;28.33;42.57;100350.19;5057419;28;1197;-39
2023/07/03 10:40:57;;;;;;;;;;;;;;;28.24;42.67;100344.94;5056817;28;1067;-38
2023/07/03 10:43:23;;;;;;;;;;;;;;;28.30;42.36;100347.88;5056165;28;1963;-40
2023/07/03 10:45:48;;;;;;;;;;;;;;;28.31;42.16;100358.47;5072262;28;1094;-41
2023/07/03 10:48:23;;;;;;;;;;;;;;;28.05;45.63;100346.50;5056892;28;1122;-35
2023/07/03 10:51:02;;;;;;;;;;;;;;;28.06;48.22;100350.06;5072570;28;1078;-36
2023/07/03 10:53:30;;;;;;;;;;;;;;;28.44;48.01;100346.09;5044473;28;1092;-33
2023/07/03 10:56:01;;;;;;;;;;;;;;;28.44;48.40;100337.97;5056640;28;1087;-36
2023/07/03 10:58:43;;;;;;;;;;;;;;;28.19;49.55;100339.31;5072367;28;1028;-36
2023/07/03 11:01:28;;;;;;;;;;;;;;;28.18;50.73;100337.63;5055760;28;1090;-35
2023/07/03 11:04:08;;;;;;;;;;;;;;;27.63;51.54;100341.84;5056667;28;1989;-35
2023/07/03 11:06:35;;;;;;;;;;;;;;;27.66;51.61;100340.59;5071191;28;1091;-35
2023/07/03 11:09:21;;;;;;;;;;;;;;;27.75;50.22;100344.88;5059695;28;1112;-31
2023/07/03 11:11:59;;;;;;;;;;;;;;;28.23;49.17;100351.38;5046309;28;1287;-37
2023/07/03 11:14:30;;;;;;;;;;;;;;;28.94;46.67;100351.25;5055513;28;1346;-35
2023/07/03 11:16:56;;;;;;;;;;;;;;;29.16;45.56;100352.97;5055660;28;1353;-36
2023/07/03 11:19:29;;;;;;;;;;;;;;;28.75;45.16;100347.44;5054983;28;1254;-36
2023/07/03 11:21:55;;;;;;;;;;;;;;;28.29;45.55;100347.06;5055665;28;1282;-36
2023/07/03 11:24:24;;;;;;;;;;;;;;;28.03;45.62;100343.16;5055010;28;1211;-33
2023/07/03 11:26:56;;;;;;;;;;;;;;;28.01;45.95;100342.50;5055596;28;1314;-33
2023/07/03 11:29:22;;;;;;;;;;;;;;;28.02;46.64;100337.94;5070438;28;1243;-35
2023/07/03 11:31:47;;;;;;;;;;;;;;;28.15;45.73;100339.88;5055466;28;1314;-35
2023/07/03 11:34:14;;;;;;;;;;;;;;;28.16;45.66;100336.97;5055173;28;1222;-35
2023/07/03 11:36:41;;;;;;;;;;;;;;;28.15;46.19;100337.19;5055463;28;1234;-39
2023/07/03 11:39:09;;;;;;;;;;;;;;;28.28;44.81;100339.97;5055336;28;1262;-38
2023/07/03 11:41:42;;;;;;;;;;;;;;;28.70;43.44;100350.78;5055361;28;1246;-34
2023/07/03 11:44:17;;;;;;;;;;;;;;;28.62;43.52;100347.41;5054723;28;1909;-39
2023/07/03 11:46:43;;;;;;;;;;;;;;;28.18;44.82;100353.00;5054893;28;1266;-39
2023/07/03 11:49:12;;;;;;;;;;;;;;;28.64;43.59;100356.16;5053643;28;1246;-39
2023/07/03 11:51:38;;;;;;;;;;;;;;;28.76;42.81;100351.00;5069955;28;1195;-39
2023/07/03 11:54:15;;;;;;;;;;;;;;;28.82;42.31;100350.16;5069590;28;1349;-39
2023/07/03 11:56:40;;;;;;;;;;;;;;;28.77;42.11;100344.53;5055158;28;1226;-39
2023/07/03 11:59:24;;;;;;;;;;;;;;;28.65;41.62;100338.88;5054901;28;1234;-39
2023/07/03 12:02:16;;;;;;;;;;;;;;;28.72;41.67;100345.16;5070151;28;1172;-39
2023/07/03 12:04:42;;;;;;;;;;;;;;;28.29;43.32;100344.34;5002510;28;1249363;-40
2023/07/03 12:07:08;;;;;;;;;;;;;;;28.72;41.96;100343.28;5055757;28;1203;-37
2023/07/03 12:09:33;;;;;;;;;;;;;;;28.81;41.53;100345.81;5070738;28;1203;-37
2023/07/03 12:11:59;;;;;;;;;;;;;;;28.75;41.28;100333.06;5055093;28;1297;-37
2023/07/03 12:14:40;;;;;;;;;;;;;;;28.79;41.03;100332.47;5055465;28;1346;-39
2023/07/03 12:17:18;;;;;;;;;;;;;;;28.70;41.06;100331.81;5055165;28;1183;-37
2023/07/03 12:19:44;;;;;;;;;;;;;;;28.47;41.60;100326.75;5055803;28;1191;-40
2023/07/03 12:22:13;;;;;;;;;;;;;;;28.03;43.27;100324.22;5056137;28;1977;-37
2023/07/03 12:24:38;;;;;;;;;;;;;;;28.28;42.45;100323.72;5070859;28;978;-39
2023/07/03 12:27:05;;;;;;;;;;;;;;;28.57;41.58;100320.97;5055995;28;1120;-38
2023/07/03 12:29:32;;;;;;;;;;;;;;;28.52;41.19;100318.88;5055801;28;1079;-39
2023/07/03 12:32:05;;;;;;;;;;;;;;;28.64;40.73;100327.22;5055365;28;1506;-39
2023/07/03 12:34:31;;;;;;;;;;;;;;;28.48;40.81;100323.84;5056423;28;1094;-35
2023/07/03 12:37:04;;;;;;;;;;;;;;;28.31;41.25;100319.81;5054110;28;1237;-41
2023/07/03 12:39:30;;;;;;;;;;;;;;;28.15;42.31;100313.69;5055658;28;1120;-37
2023/07/03 12:42:03;;;;;;;;;;;;;;;28.22;41.54;100319.13;5071117;28;1159;-40
2023/07/03 12:44:29;;;;;;;;;;;;;;;28.53;40.85;100315.09;5055671;28;1210;-34
2023/07/03 12:46:54;;;;;;;;;;;;;;;28.38;40.58;100311.75;5055266;28;1071;-39
2023/07/03 12:49:20;;;;;;;;;;;;;;;28.62;40.08;100307.66;5068472;28;1326;-38